Ulmodrome de Limoux

FR-0329 · Aude, Occitanie, 法国

罗盘
风向 的 风向 280°
风: 15 kt, 4 beaufort

添加一条跑道以查看侧风和逆风信息。

添置 跑道
0 ft 1.000 2.000 3.000 4.000 5.000
Cloud Cloud Cloud Cloud Cloud Cloud
BKN 3.600
Cloud Cloud Cloud Cloud Cloud Cloud
BKN 4.200
METAR LFMK 011100Z AUTO 28015KT 9999 BKN036 BKN042 13/05 Q1013 TEMPO 27016G26KT

METAR Ulmodrome de Limoux - FR-0329

Ulmodrome de Limoux是,法国中的小机场。 该机场位于纬度43,05666和经度2,22633。 这个机场没有ICAO代码,我们使用FR-0329作为参考。 机场在Bordeaux FIR中。

该航空气象观测是针对Carcassonne Airport在2024年3月1日 12:00, 当地时间进行的。

机场观察

风向为280°,速度为15 kt。

可见度为10 km 或者更多。

有碎云在3.600 ft的高度 和 碎云在4.200 ft的高度。 破损或更高的上限为3.600 ft。

温度和风寒是13 °C。 露点为5 °C,相对湿度为59%。 海平面上的气压为1013 hPa (QNH)。

发展趋势

  • 暂时的

    风来自270°方向,速度为16 kt。 预计26 kt阵风。

白天

今天,太阳从07:26升起,在18:40降落。 这适用于Ulmodrome de Limoux,世界夏令时可能有所不同。 当地时间与世界标准时间之间的时差为+1 小时。 当前,没有夏令时有效。

公司介绍

我们没有关于这个机场的公司信息。

体会

到Vliegles.nl去找飞行课程,跳伞和其他飞行体验。 浏览页面,了解Ulmodrome de Limoux附近所有可用的活动。 你也可以使用搜索功能来寻找你所在地附近的特定飞行课程、跳伞或其他飞行体验。

乌云

3.600 ft BKN 碎云
4.200 ft BKN 碎云

温度 & 天气

温度 13 °C
露点 5 °C
相对湿度 59%
Kp-index 2 (0-9)

白天

日出
07:25
中午
13:02
日落
18:40 (6:19)

小工具

你想在你的网站上有一个关于Ulmodrome de Limoux的当前航空天气(METAR)的小部件吗?

显示HTML代码
?>